createdAt,value
2023-03-27T00:00:42.088Z,8.44
2023-03-27T00:01:42.111Z,8.46
2023-03-27T00:02:42.212Z,8.44
2023-03-27T00:03:42.088Z,8.51
2023-03-27T00:04:42.042Z,8.51
2023-03-27T00:05:42.019Z,8.41
2023-03-27T00:06:42.013Z,8.44
2023-03-27T00:07:42.028Z,8.44
2023-03-27T00:08:41.996Z,8.37
2023-03-27T00:09:41.986Z,8.34
2023-03-27T00:10:41.976Z,8.37
2023-03-27T00:11:41.970Z,8.38
2023-03-27T00:12:41.980Z,8.26
2023-03-27T00:13:49.417Z,8.28
2023-03-27T00:14:42.965Z,8.28
2023-03-27T00:15:41.927Z,8.30
2023-03-27T00:16:41.930Z,8.31
2023-03-27T00:17:41.981Z,8.30
2023-03-27T00:18:41.894Z,8.27
2023-03-27T00:19:41.896Z,8.33
2023-03-27T00:20:41.871Z,8.24
2023-03-27T00:21:41.851Z,8.23
2023-03-27T00:22:41.895Z,8.16
2023-03-27T00:23:41.841Z,8.16
2023-03-27T00:24:41.855Z,8.23
2023-03-27T00:25:41.812Z,8.10
2023-03-27T00:26:41.810Z,8.20
2023-03-27T00:27:41.810Z,8.13
2023-03-27T00:28:41.817Z,8.09
2023-03-27T00:29:41.778Z,8.10
2023-03-27T00:30:41.789Z,8.00
2023-03-27T00:31:41.753Z,8.13
2023-03-27T00:32:41.793Z,8.05
2023-03-27T00:33:41.781Z,8.03
2023-03-27T00:34:41.723Z,8.03
2023-03-27T00:35:41.767Z,8.01
2023-03-27T00:36:41.704Z,8.01
2023-03-27T00:37:41.688Z,7.97
2023-03-27T00:38:41.682Z,8.01
2023-03-27T00:39:41.714Z,8.05
2023-03-27T00:40:41.688Z,8.06
2023-03-27T00:41:41.642Z,8.09
2023-03-27T00:42:41.627Z,8.10
2023-03-27T00:43:41.655Z,8.00
2023-03-27T00:44:41.644Z,8.09
2023-03-27T00:45:41.630Z,8.12
2023-03-27T00:46:41.654Z,8.16
2023-03-27T00:47:41.632Z,8.13
2023-03-27T00:48:41.598Z,8.16
2023-03-27T00:49:41.643Z,8.16
2023-03-27T00:50:41.563Z,8.10
2023-03-27T00:51:41.577Z,8.10
2023-03-27T00:52:41.526Z,8.13
2023-03-27T00:53:41.549Z,8.18
2023-03-27T00:54:41.500Z,8.09
2023-03-27T00:55:41.498Z,8.15
2023-03-27T00:56:41.493Z,8.15
2023-03-27T00:57:41.507Z,8.03
2023-03-27T00:58:41.469Z,8.12
2023-03-27T00:59:41.451Z,8.12
2023-03-27T01:00:41.445Z,8.10
2023-03-27T01:01:41.510Z,8.03
2023-03-27T01:02:41.552Z,8.08
2023-03-27T01:03:41.556Z,7.98
2023-03-27T01:04:41.434Z,7.95
2023-03-27T01:05:41.405Z,7.95
2023-03-27T01:06:41.378Z,8.01
2023-03-27T01:07:41.369Z,7.97
2023-03-27T01:08:42.353Z,8.09
2023-03-27T01:09:41.348Z,7.97
2023-03-27T01:10:41.372Z,8.00
2023-03-27T01:11:41.322Z,7.88
2023-03-27T01:12:41.314Z,7.91
2023-03-27T01:13:41.307Z,7.87
2023-03-27T01:14:41.281Z,7.95
2023-03-27T01:15:41.305Z,7.93
2023-03-27T01:16:41.314Z,7.90
2023-03-27T01:17:41.313Z,7.87
2023-03-27T01:18:41.265Z,7.85
2023-03-27T01:19:41.231Z,7.82
2023-03-27T01:20:41.239Z,7.85
2023-03-27T01:21:41.236Z,7.82
2023-03-27T01:22:41.239Z,7.80
2023-03-27T01:23:59.354Z,7.83
2023-03-27T01:24:42.194Z,7.77
2023-03-27T01:25:41.202Z,7.80
2023-03-27T01:26:41.161Z,7.77
2023-03-27T01:27:41.144Z,7.80
2023-03-27T01:28:41.158Z,7.67
2023-03-27T01:29:41.123Z,7.67
2023-03-27T01:30:41.112Z,7.75
2023-03-27T01:31:41.149Z,7.67
2023-03-27T01:32:41.132Z,7.75
2023-03-27T01:33:41.118Z,7.72
2023-03-27T01:34:41.067Z,7.76
2023-03-27T01:35:41.086Z,7.72
2023-03-27T01:36:41.093Z,7.56
2023-03-27T01:37:41.058Z,7.60
2023-03-27T01:38:41.031Z,7.51
2023-03-27T01:39:41.027Z,7.66
2023-03-27T01:40:41.020Z,7.60
2023-03-27T01:41:41.013Z,7.56
2023-03-27T01:42:41.034Z,7.66
2023-03-27T01:43:40.989Z,7.60
2023-03-27T01:44:44.566Z,7.60
2023-03-27T01:45:40.965Z,7.60
2023-03-27T01:46:40.979Z,7.57
2023-03-27T01:47:41.009Z,7.51
2023-03-27T01:48:41.037Z,7.50
2023-03-27T01:49:40.935Z,7.53
2023-03-27T01:50:40.918Z,7.51
2023-03-27T01:51:40.892Z,7.54
2023-03-27T01:52:40.888Z,7.45
2023-03-27T01:53:41.067Z,7.42
2023-03-27T01:54:40.870Z,7.56
2023-03-27T01:55:40.859Z,7.53
2023-03-27T01:56:40.863Z,7.48
2023-03-27T01:57:48.938Z,7.50
2023-03-27T01:58:41.871Z,7.56
2023-03-27T01:59:40.820Z,7.50
2023-03-27T02:00:51.480Z,7.57
2023-03-27T02:01:41.820Z,7.51
2023-03-27T02:02:40.818Z,7.51
2023-03-27T02:03:40.768Z,7.58
2023-03-27T02:04:40.845Z,7.53
2023-03-27T02:05:40.756Z,7.51
2023-03-27T02:06:40.742Z,7.45
2023-03-27T02:07:40.732Z,7.40
2023-03-27T02:08:40.714Z,7.45
2023-03-27T02:09:40.724Z,7.48
2023-03-27T02:10:40.725Z,7.43
2023-03-27T02:11:40.695Z,7.45
2023-03-27T02:12:40.679Z,7.43
2023-03-27T02:13:40.661Z,7.42
2023-03-27T02:14:40.661Z,7.42
2023-03-27T02:15:40.671Z,7.40
2023-03-27T02:16:40.676Z,7.45
2023-03-27T02:17:40.650Z,7.43
2023-03-27T02:18:40.606Z,7.42
2023-03-27T02:19:40.599Z,7.45
2023-03-27T02:20:40.626Z,7.53
2023-03-27T02:21:40.580Z,7.51
2023-03-27T02:22:40.574Z,7.43
2023-03-27T02:23:40.564Z,7.48
2023-03-27T02:24:40.587Z,7.48
2023-03-27T02:25:40.573Z,7.54
2023-03-27T02:26:40.529Z,7.53
2023-03-27T02:27:40.516Z,7.53
2023-03-27T02:28:40.506Z,7.45
2023-03-27T02:29:40.497Z,7.53
2023-03-27T02:30:40.519Z,7.51
2023-03-27T02:31:40.486Z,7.43
2023-03-27T02:32:40.497Z,7.43
2023-03-27T02:33:40.455Z,7.42
2023-03-27T02:34:40.450Z,7.35
2023-03-27T02:35:40.485Z,7.31
2023-03-27T02:36:40.461Z,7.31
2023-03-27T02:37:40.412Z,7.23
2023-03-27T02:38:40.397Z,7.20
2023-03-27T02:39:40.398Z,7.21
2023-03-27T02:40:40.563Z,7.13
2023-03-27T02:41:40.402Z,7.13
2023-03-27T02:42:40.394Z,7.10
2023-03-27T02:43:40.356Z,7.14
2023-03-27T02:44:47.455Z,7.13
2023-03-27T02:45:41.359Z,7.13
2023-03-27T02:46:40.315Z,7.07
2023-03-27T02:47:40.359Z,7.03
2023-03-27T02:48:40.312Z,7.03
2023-03-27T02:49:40.291Z,6.95
2023-03-27T02:50:40.277Z,6.96
2023-03-27T02:51:40.287Z,6.99
2023-03-27T02:52:40.260Z,6.87
2023-03-27T02:53:40.300Z,6.81
2023-03-27T02:54:40.249Z,6.77
2023-03-27T02:55:40.233Z,6.82
2023-03-27T02:56:40.242Z,6.79
2023-03-27T02:57:40.262Z,6.81
2023-03-27T02:58:40.190Z,6.66
2023-03-27T02:59:40.219Z,6.67
2023-03-27T03:00:40.187Z,6.62
2023-03-27T03:01:40.229Z,6.74
2023-03-27T03:02:40.250Z,6.67
2023-03-27T03:03:40.191Z,6.74
2023-03-27T03:04:40.134Z,6.69
2023-03-27T03:05:40.114Z,6.67
2023-03-27T03:06:40.140Z,6.77
2023-03-27T03:07:40.141Z,6.72
2023-03-27T03:08:40.084Z,6.66
2023-03-27T03:09:40.607Z,6.72
2023-03-27T03:10:40.062Z,6.77
2023-03-27T03:11:40.102Z,6.77
2023-03-27T03:12:40.075Z,6.75
2023-03-27T03:13:40.055Z,6.70
2023-03-27T03:14:40.034Z,6.69
2023-03-27T03:15:40.021Z,6.78
2023-03-27T03:16:40.048Z,6.77
2023-03-27T03:17:40.085Z,6.79
2023-03-27T03:18:39.980Z,6.82
2023-03-27T03:19:39.999Z,6.82
2023-03-27T03:20:39.957Z,6.78
2023-03-27T03:21:39.943Z,6.84
2023-03-27T03:22:39.983Z,6.74
2023-03-27T03:23:39.920Z,6.75
2023-03-27T03:24:39.912Z,6.74
2023-03-27T03:25:39.928Z,6.78
2023-03-27T03:26:39.890Z,6.75
2023-03-27T03:27:39.882Z,6.81
2023-03-27T03:28:39.900Z,6.70
2023-03-27T03:29:40.885Z,6.74
2023-03-27T03:30:39.884Z,6.78
2023-03-27T03:31:39.846Z,6.67
2023-03-27T03:32:39.877Z,6.74
2023-03-27T03:33:39.817Z,6.77
2023-03-27T03:34:39.840Z,6.70
2023-03-27T03:35:39.831Z,6.79
2023-03-27T03:36:39.781Z,6.69
2023-03-27T03:37:39.775Z,6.64
2023-03-27T03:38:39.760Z,6.75
2023-03-27T03:39:39.759Z,6.75
2023-03-27T03:40:39.787Z,6.77
2023-03-27T03:41:39.744Z,6.64
2023-03-27T03:42:39.760Z,6.72
2023-03-27T03:43:39.715Z,6.74
2023-03-27T03:44:39.696Z,6.66
2023-03-27T03:45:39.761Z,6.66
2023-03-27T03:46:39.734Z,6.62
2023-03-27T03:47:39.704Z,6.56
2023-03-27T03:48:39.684Z,6.57
2023-03-27T03:49:39.669Z,6.60
2023-03-27T03:50:39.638Z,6.52
2023-03-27T03:51:39.630Z,6.49
2023-03-27T03:52:39.613Z,6.45
2023-03-27T03:53:39.649Z,6.36
2023-03-27T03:54:39.628Z,6.33
2023-03-27T03:55:39.605Z,6.27
2023-03-27T03:56:39.627Z,6.27
2023-03-27T03:57:39.555Z,6.27
2023-03-27T03:58:39.551Z,6.22
2023-03-27T03:59:39.540Z,6.24
2023-03-27T04:00:39.526Z,6.20
2023-03-27T04:01:39.581Z,6.26
2023-03-27T04:02:39.570Z,6.19
2023-03-27T04:03:39.651Z,6.27
2023-03-27T04:04:39.507Z,6.20
2023-03-27T04:05:39.507Z,6.19
2023-03-27T04:06:39.490Z,6.14
2023-03-27T04:07:39.443Z,6.26
2023-03-27T04:08:39.476Z,6.17
2023-03-27T04:09:39.426Z,6.17
2023-03-27T04:10:39.433Z,6.17
2023-03-27T04:11:39.437Z,6.12
2023-03-27T04:12:39.388Z,6.12
2023-03-27T04:13:39.382Z,6.11
2023-03-27T04:14:39.370Z,6.09
2023-03-27T04:15:39.400Z,6.16
2023-03-27T04:16:39.353Z,6.12
2023-03-27T04:17:39.467Z,6.17
2023-03-27T04:18:39.516Z,6.16
2023-03-27T04:19:39.322Z,6.16
2023-03-27T04:20:39.304Z,6.11
2023-03-27T04:21:39.296Z,6.20
2023-03-27T04:22:39.282Z,6.09
2023-03-27T04:23:39.317Z,6.08
2023-03-27T04:24:39.268Z,6.16
2023-03-27T04:25:39.326Z,6.16
2023-03-27T04:26:39.239Z,6.08
2023-03-27T04:27:39.278Z,6.07
2023-03-27T04:28:39.225Z,6.07
2023-03-27T04:29:39.212Z,5.94
2023-03-27T04:30:39.209Z,5.89
2023-03-27T04:31:39.254Z,5.93
2023-03-27T04:32:39.201Z,5.91
2023-03-27T04:33:39.262Z,5.91
2023-03-27T04:34:39.159Z,5.91
2023-03-27T04:35:39.207Z,5.93
2023-03-27T04:36:39.143Z,5.99
2023-03-27T04:37:39.141Z,5.99
2023-03-27T04:38:39.195Z,5.82
2023-03-27T04:39:39.160Z,5.86
2023-03-27T04:40:39.102Z,5.84
2023-03-27T04:41:39.107Z,5.83
2023-03-27T04:42:39.086Z,5.87
2023-03-27T04:43:39.070Z,5.80
2023-03-27T04:44:39.096Z,5.76
2023-03-27T04:45:39.046Z,5.75
2023-03-27T04:46:39.116Z,5.69
2023-03-27T04:47:39.162Z,5.73
2023-03-27T04:48:39.417Z,5.79
2023-03-27T04:49:39.069Z,5.72
2023-03-27T04:50:39.023Z,5.76
2023-03-27T04:51:38.987Z,5.80
2023-03-27T04:52:38.973Z,5.72
2023-03-27T04:53:39.000Z,5.72
2023-03-27T04:54:38.948Z,5.76
2023-03-27T04:55:38.983Z,5.72
2023-03-27T04:56:38.963Z,5.76
2023-03-27T04:57:38.923Z,5.76
2023-03-27T04:58:38.912Z,5.73
2023-03-27T04:59:38.899Z,5.80
2023-03-27T05:00:38.914Z,5.83
2023-03-27T05:01:39.060Z,5.89
2023-03-27T05:02:38.924Z,5.87
2023-03-27T05:03:38.953Z,5.79
2023-03-27T05:04:38.863Z,5.86
2023-03-27T05:05:38.860Z,5.82
2023-03-27T05:06:40.559Z,5.79
2023-03-27T05:07:38.815Z,5.82
2023-03-27T05:08:38.805Z,5.82
2023-03-27T05:09:38.794Z,5.82
2023-03-27T05:10:38.778Z,5.79
2023-03-27T05:11:38.804Z,5.82
2023-03-27T05:12:38.780Z,5.84
2023-03-27T05:13:38.742Z,5.86
2023-03-27T05:14:38.732Z,5.87
2023-03-27T05:15:38.733Z,5.87
2023-03-27T05:16:38.740Z,5.82
2023-03-27T05:17:38.759Z,5.80
2023-03-27T05:18:41.975Z,5.80
2023-03-27T05:19:38.680Z,5.75
2023-03-27T05:20:38.705Z,5.72
2023-03-27T05:21:38.682Z,5.72
2023-03-27T05:22:38.683Z,5.75
2023-03-27T05:23:38.640Z,5.75
2023-03-27T05:24:38.631Z,5.75
2023-03-27T05:25:38.614Z,5.75
2023-03-27T05:26:38.706Z,5.82
2023-03-27T05:27:38.869Z,5.71
2023-03-27T05:28:38.609Z,5.75
2023-03-27T05:29:46.858Z,5.71
2023-03-27T05:30:39.619Z,5.79
2023-03-27T05:31:38.553Z,5.69
2023-03-27T05:32:38.562Z,5.65
2023-03-27T05:33:38.566Z,5.64
2023-03-27T05:34:38.527Z,5.71
2023-03-27T05:35:38.517Z,5.72
2023-03-27T05:36:38.504Z,5.72
2023-03-27T05:37:38.533Z,5.71
2023-03-27T05:38:38.524Z,5.68
2023-03-27T05:39:38.469Z,5.64
2023-03-27T05:40:38.454Z,5.65
2023-03-27T05:41:38.450Z,5.71
2023-03-27T05:42:38.434Z,5.76
2023-03-27T05:43:38.462Z,5.66
2023-03-27T05:44:38.451Z,5.71
2023-03-27T05:45:38.420Z,5.72
2023-03-27T05:46:38.454Z,5.71
2023-03-27T05:47:38.410Z,5.76
2023-03-27T05:48:38.421Z,5.72
2023-03-27T05:49:38.363Z,5.82
2023-03-27T05:50:38.361Z,5.76
2023-03-27T05:51:38.336Z,5.71
2023-03-27T05:52:39.344Z,5.73
2023-03-27T05:53:38.382Z,5.76
2023-03-27T05:54:38.340Z,5.72
2023-03-27T05:55:38.313Z,5.72
2023-03-27T05:56:38.326Z,5.72
2023-03-27T05:57:38.284Z,5.76
2023-03-27T05:58:38.269Z,5.68
2023-03-27T05:59:38.314Z,5.75
2023-03-27T06:00:38.283Z,5.68
2023-03-27T06:01:38.229Z,5.76
2023-03-27T06:02:38.251Z,5.73
2023-03-27T06:03:38.508Z,5.80
2023-03-27T06:04:38.249Z,5.73
2023-03-27T06:05:38.195Z,5.75
2023-03-27T06:06:38.215Z,5.72
2023-03-27T06:07:38.596Z,5.72
2023-03-27T06:08:38.172Z,5.73
2023-03-27T06:09:38.177Z,5.71
2023-03-27T06:10:38.143Z,5.75
2023-03-27T06:11:38.157Z,5.79
2023-03-27T06:12:38.142Z,5.80
2023-03-27T06:13:38.110Z,5.83
2023-03-27T06:14:38.106Z,5.82
2023-03-27T06:15:38.127Z,5.82
2023-03-27T06:16:38.104Z,5.82
2023-03-27T06:17:38.145Z,5.83
2023-03-27T06:18:38.074Z,5.87
2023-03-27T06:19:38.042Z,5.87
2023-03-27T06:20:38.038Z,5.82
2023-03-27T06:21:39.421Z,5.83
2023-03-27T06:22:38.019Z,5.91
2023-03-27T06:23:38.029Z,5.90
2023-03-27T06:24:38.039Z,5.93
2023-03-27T06:25:38.011Z,5.94
2023-03-27T06:26:38.019Z,5.91
2023-03-27T06:27:38.046Z,5.91
2023-03-27T06:28:37.979Z,5.89
2023-03-27T06:29:37.931Z,5.93
2023-03-27T06:30:37.929Z,5.91
2023-03-27T06:31:37.930Z,6.05
2023-03-27T06:32:37.915Z,6.01
2023-03-27T06:33:37.921Z,5.99
2023-03-27T06:34:37.924Z,6.08
2023-03-27T06:35:37.932Z,6.07
2023-03-27T06:36:37.866Z,6.12
2023-03-27T06:37:37.847Z,6.07
2023-03-27T06:38:37.875Z,6.27
2023-03-27T06:39:37.834Z,6.39
2023-03-27T06:40:37.819Z,6.35
2023-03-27T06:41:37.823Z,6.56
2023-03-27T06:42:37.797Z,6.64
2023-03-27T06:43:37.779Z,6.78
2023-03-27T06:44:37.803Z,6.84
2023-03-27T06:45:37.776Z,6.87
2023-03-27T06:46:45.052Z,7.02
2023-03-27T06:47:48.129Z,7.11
2023-03-27T06:48:38.748Z,7.07
2023-03-27T06:49:37.748Z,7.15
2023-03-27T06:50:37.712Z,7.24
2023-03-27T06:51:37.702Z,7.23
2023-03-27T06:52:37.695Z,7.18
2023-03-27T06:53:38.324Z,7.24
2023-03-27T06:54:37.723Z,7.32
2023-03-27T06:55:37.657Z,7.25
2023-03-27T06:56:37.696Z,7.35
2023-03-27T06:57:37.653Z,7.31
2023-03-27T06:58:37.626Z,7.39
2023-03-27T06:59:37.768Z,7.39
2023-03-27T07:00:37.633Z,7.43
2023-03-27T07:01:37.617Z,7.47
2023-03-27T07:02:37.634Z,7.51
2023-03-27T07:03:37.571Z,7.63
2023-03-27T07:04:37.563Z,7.54
2023-03-27T07:05:37.684Z,7.61
2023-03-27T07:06:39.644Z,7.69
2023-03-27T07:07:40.347Z,7.69
2023-03-27T07:08:37.512Z,7.75
2023-03-27T07:09:39.938Z,7.82
2023-03-27T07:10:37.887Z,7.69
2023-03-27T07:11:37.746Z,7.72
2023-03-27T07:12:37.550Z,7.63
2023-03-27T07:13:37.628Z,7.61
2023-03-27T07:14:37.625Z,7.51
2023-03-27T07:15:37.548Z,7.56
2023-03-27T07:16:37.473Z,7.73
2023-03-27T07:17:48.217Z,7.70
2023-03-27T07:18:38.408Z,7.69
2023-03-27T07:19:37.396Z,7.76
2023-03-27T07:20:37.394Z,7.80
2023-03-27T07:21:37.400Z,7.79
2023-03-27T07:22:37.362Z,7.80
2023-03-27T07:23:37.461Z,7.79
2023-03-27T07:24:37.345Z,7.90
2023-03-27T07:25:37.338Z,7.90
2023-03-27T07:26:37.365Z,7.98
2023-03-27T07:27:37.312Z,7.93
2023-03-27T07:28:37.294Z,7.94
2023-03-27T07:29:37.349Z,7.97
2023-03-27T07:30:37.282Z,7.97
2023-03-27T07:32:38.092Z,7.91
2023-03-27T07:33:37.313Z,7.83
2023-03-27T07:34:37.234Z,7.90
2023-03-27T07:35:37.255Z,7.94
2023-03-27T07:36:37.212Z,7.91
2023-03-27T07:37:38.141Z,8.00
2023-03-27T07:38:37.193Z,7.93
2023-03-27T07:39:37.189Z,7.88
2023-03-27T07:40:40.015Z,7.90
2023-03-27T07:41:37.172Z,7.90
2023-03-27T07:42:37.180Z,7.88
2023-03-27T07:43:37.181Z,7.95
2023-03-27T07:44:37.229Z,8.01
2023-03-27T07:45:37.173Z,8.08
2023-03-27T07:46:37.111Z,8.09
2023-03-27T07:47:37.158Z,8.13
2023-03-27T07:48:37.127Z,8.26
2023-03-27T07:49:39.228Z,8.27
2023-03-27T07:50:37.067Z,8.52
2023-03-27T07:51:37.059Z,8.49
2023-03-27T07:52:37.048Z,8.46
2023-03-27T07:53:37.074Z,8.45
2023-03-27T07:54:37.055Z,8.36
2023-03-27T07:55:37.009Z,8.38
2023-03-27T07:56:37.026Z,8.52
2023-03-27T07:57:46.033Z,8.60
2023-03-27T07:58:38.091Z,8.71
2023-03-27T07:59:37.147Z,8.82
2023-03-27T08:00:36.984Z,8.95
2023-03-27T08:01:36.974Z,8.91
2023-03-27T08:02:36.944Z,8.76
2023-03-27T08:03:37.079Z,8.84
2023-03-27T08:04:37.088Z,8.73
2023-03-27T08:05:36.901Z,8.61
2023-03-27T08:06:36.913Z,8.52
2023-03-27T08:07:36.892Z,8.52
2023-03-27T08:08:36.877Z,8.42
2023-03-27T08:09:36.858Z,8.44
2023-03-27T08:10:36.885Z,8.44
2023-03-27T08:11:36.836Z,8.38
2023-03-27T08:12:36.832Z,8.41
2023-03-27T08:13:36.897Z,8.37
2023-03-27T08:14:36.801Z,8.30
2023-03-27T08:15:36.802Z,8.33
2023-03-27T08:16:45.449Z,8.26
2023-03-27T08:17:36.976Z,8.38
2023-03-27T08:18:36.762Z,8.46
2023-03-27T08:19:36.755Z,8.41
2023-03-27T08:20:36.758Z,8.52
2023-03-27T08:21:36.724Z,8.36
2023-03-27T08:22:36.719Z,8.55
2023-03-27T08:23:36.700Z,8.76
2023-03-27T08:24:36.708Z,8.87
2023-03-27T08:25:36.684Z,8.95
2023-03-27T08:26:36.717Z,9.03
2023-03-27T08:27:36.696Z,9.11
2023-03-27T08:28:36.662Z,9.22
2023-03-27T08:29:36.639Z,9.26
2023-03-27T08:30:36.671Z,9.48
2023-03-27T08:31:36.657Z,9.80
2023-03-27T08:32:36.641Z,9.92
2023-03-27T08:33:36.614Z,9.99
2023-03-27T08:34:36.588Z,10.07
2023-03-27T08:35:36.781Z,10.01
2023-03-27T08:36:36.585Z,10.07
2023-03-27T08:37:36.556Z,10.07
2023-03-27T08:38:36.537Z,9.86
2023-03-27T08:39:36.544Z,9.76
2023-03-27T08:40:36.567Z,9.72
2023-03-27T08:41:36.520Z,9.65
2023-03-27T08:42:36.511Z,9.64
2023-03-27T08:43:36.508Z,9.58
2023-03-27T08:44:36.488Z,9.47
2023-03-27T08:45:36.473Z,9.43
2023-03-27T08:46:36.506Z,9.25
2023-03-27T08:47:36.508Z,9.25
2023-03-27T08:48:36.464Z,9.44
2023-03-27T08:49:36.430Z,9.66
2023-03-27T08:50:36.430Z,9.62
2023-03-27T08:51:36.407Z,9.62
2023-03-27T08:52:36.490Z,9.59
2023-03-27T08:53:37.368Z,9.54
2023-03-27T08:54:36.397Z,9.62
2023-03-27T08:55:36.366Z,9.56
2023-03-27T08:56:36.381Z,9.59
2023-03-27T08:57:36.365Z,9.46
2023-03-27T08:58:36.447Z,9.41
2023-03-27T08:59:36.315Z,9.36
2023-03-27T09:00:36.314Z,9.29
2023-03-27T09:01:36.362Z,9.28
2023-03-27T09:02:36.374Z,9.41
2023-03-27T09:03:36.464Z,10.72
2023-03-27T09:04:37.670Z,10.76
2023-03-27T09:05:36.251Z,10.51
2023-03-27T09:06:36.256Z,10.86
2023-03-27T09:07:36.227Z,10.64
2023-03-27T09:08:36.224Z,10.59
2023-03-27T09:09:36.245Z,10.56
2023-03-27T09:10:36.223Z,10.35
2023-03-27T09:11:36.188Z,10.34
2023-03-27T09:12:36.186Z,12.00
2023-03-27T09:13:36.166Z,14.18
2023-03-27T09:14:36.192Z,15.35
2023-03-27T09:15:36.141Z,15.52
2023-03-27T09:16:36.238Z,15.86
2023-03-27T09:17:36.172Z,17.46
2023-03-27T09:18:36.951Z,17.33
2023-03-27T09:19:36.106Z,16.69
2023-03-27T09:20:36.145Z,16.28
2023-03-27T09:21:36.113Z,17.59
2023-03-27T09:22:36.063Z,18.98
2023-03-27T09:23:36.059Z,20.41
2023-03-27T09:24:36.044Z,21.75
2023-03-27T09:25:36.042Z,22.99
2023-03-27T09:26:36.118Z,23.47
2023-03-27T09:27:36.025Z,22.62
2023-03-27T09:28:36.023Z,22.76
2023-03-27T09:29:36.038Z,23.66
2023-03-27T09:30:35.984Z,23.66
2023-03-27T09:31:36.033Z,24.66
2023-03-27T09:32:35.991Z,25.21
2023-03-27T09:33:35.947Z,24.51
2023-03-27T09:34:35.976Z,23.92
2023-03-27T09:35:35.939Z,24.38
2023-03-27T09:36:35.950Z,24.88
2023-03-27T09:37:37.055Z,25.53
2023-03-27T09:38:35.934Z,26.22
2023-03-27T09:39:35.898Z,26.80
2023-03-27T09:40:35.890Z,27.25
2023-03-27T09:41:35.879Z,27.80
2023-03-27T09:42:35.899Z,27.49
2023-03-27T09:43:35.854Z,27.92
2023-03-27T09:44:35.835Z,28.15
2023-03-27T09:45:35.835Z,27.07
2023-03-27T09:46:35.886Z,25.51
2023-03-27T09:47:35.850Z,24.98
2023-03-27T09:48:35.839Z,24.78
2023-03-27T09:49:35.813Z,23.68
2023-03-27T09:50:35.822Z,23.66
2023-03-27T09:51:35.779Z,23.40
2023-03-27T09:52:35.779Z,24.45
2023-03-27T09:53:35.769Z,25.59
2023-03-27T09:54:35.782Z,26.19
2023-03-27T09:55:35.737Z,26.06
2023-03-27T09:56:35.765Z,27.00
2023-03-27T09:57:35.727Z,27.02
2023-03-27T09:58:35.717Z,25.55
2023-03-27T09:59:35.719Z,24.26
2023-03-27T10:00:35.774Z,22.80
2023-03-27T10:01:35.945Z,21.61
2023-03-27T10:02:35.689Z,20.43
2023-03-27T10:03:35.701Z,19.36
2023-03-27T10:04:35.683Z,18.53
2023-03-27T10:05:35.647Z,17.64
2023-03-27T10:06:35.617Z,16.87
2023-03-27T10:07:35.614Z,16.26
2023-03-27T10:08:35.613Z,15.88
2023-03-27T10:09:35.597Z,15.52
2023-03-27T10:10:35.605Z,16.71
2023-03-27T10:11:35.576Z,17.79
2023-03-27T10:12:35.554Z,19.29
2023-03-27T10:13:35.592Z,20.55
2023-03-27T10:14:35.546Z,21.43
2023-03-27T10:15:35.558Z,20.88
2023-03-27T10:16:35.538Z,19.95
2023-03-27T10:17:35.593Z,20.40
2023-03-27T10:18:35.491Z,20.37
2023-03-27T10:19:35.499Z,19.52
2023-03-27T10:20:35.485Z,18.80
2023-03-27T10:21:35.456Z,18.01
2023-03-27T10:22:35.507Z,17.14
2023-03-27T10:23:35.470Z,16.43
2023-03-27T10:24:35.445Z,15.64
2023-03-27T10:25:35.415Z,15.07
2023-03-27T10:26:35.413Z,14.60
2023-03-27T10:27:35.432Z,14.36
2023-03-27T10:28:35.386Z,14.14
2023-03-27T10:29:35.368Z,14.18
2023-03-27T10:30:35.364Z,14.51
2023-03-27T10:31:35.407Z,14.54
2023-03-27T10:32:35.369Z,14.59
2023-03-27T10:33:35.334Z,14.79
2023-03-27T10:34:35.319Z,15.03
2023-03-27T10:35:36.713Z,15.18
2023-03-27T10:36:35.343Z,15.24
2023-03-27T10:37:35.291Z,14.96
2023-03-27T10:38:35.304Z,15.00
2023-03-27T10:39:35.312Z,14.60
2023-03-27T10:40:35.277Z,14.29
2023-03-27T10:41:35.237Z,14.07
2023-03-27T10:42:35.234Z,13.86
2023-03-27T10:43:35.234Z,13.59
2023-03-27T10:44:35.252Z,13.39
2023-03-27T10:45:35.233Z,13.12
2023-03-27T10:46:35.262Z,12.85
2023-03-27T10:47:35.242Z,12.75
2023-03-27T10:48:35.166Z,12.82
2023-03-27T10:49:35.159Z,13.05
2023-03-27T10:50:35.177Z,13.01
2023-03-27T10:51:45.422Z,12.90
2023-03-27T10:52:36.128Z,12.87
2023-03-27T10:53:35.315Z,12.87
2023-03-27T10:54:35.158Z,12.94
2023-03-27T10:55:35.126Z,12.83
2023-03-27T10:56:35.119Z,12.78
2023-03-27T10:57:35.083Z,12.70
2023-03-27T10:58:35.068Z,12.80
2023-03-27T10:59:41.425Z,12.62
2023-03-27T11:00:36.556Z,12.58
2023-03-27T11:01:35.042Z,12.60
2023-03-27T11:02:35.129Z,12.47
2023-03-27T11:03:35.057Z,12.36
2023-03-27T11:04:35.026Z,12.37
2023-03-27T11:05:35.082Z,12.28
2023-03-27T11:06:34.982Z,12.22
2023-03-27T11:07:34.963Z,12.15
2023-03-27T11:08:34.981Z,12.04
2023-03-27T11:09:34.929Z,11.91
2023-03-27T11:10:34.954Z,11.94
2023-03-27T11:11:34.917Z,11.94
2023-03-27T11:12:34.947Z,11.84
2023-03-27T11:13:34.975Z,11.75
2023-03-27T11:14:34.880Z,11.81
2023-03-27T11:15:34.903Z,11.81
2023-03-27T11:16:34.920Z,11.75
2023-03-27T11:17:34.905Z,11.99
2023-03-27T11:18:34.838Z,12.10
2023-03-27T11:19:34.860Z,12.18
2023-03-27T11:20:34.852Z,12.17
2023-03-27T11:21:34.805Z,12.27
2023-03-27T11:22:34.795Z,12.45
2023-03-27T11:23:34.793Z,12.31
2023-03-27T11:24:34.766Z,12.31
2023-03-27T11:25:34.758Z,12.60
2023-03-27T11:26:34.778Z,12.40
2023-03-27T11:27:34.742Z,12.42
2023-03-27T11:28:34.792Z,12.46
2023-03-27T11:29:34.718Z,12.49
2023-03-27T11:30:34.709Z,12.46
2023-03-27T11:31:34.766Z,12.58
2023-03-27T11:32:34.706Z,12.72
2023-03-27T11:33:34.670Z,12.79
2023-03-27T11:34:34.724Z,12.82
2023-03-27T11:35:34.703Z,12.94
2023-03-27T11:36:34.689Z,13.00
2023-03-27T11:37:34.659Z,13.13
2023-03-27T11:38:34.643Z,13.22
2023-03-27T11:39:34.612Z,13.15
2023-03-27T11:40:34.607Z,13.27
2023-03-27T11:41:34.623Z,13.30
2023-03-27T11:42:34.624Z,13.01
2023-03-27T11:43:34.590Z,13.00
2023-03-27T11:44:34.585Z,13.15
2023-03-27T11:45:34.553Z,13.23
2023-03-27T11:46:34.614Z,13.44
2023-03-27T11:47:34.664Z,13.54
2023-03-27T11:48:34.541Z,13.56
2023-03-27T11:49:34.524Z,13.75
2023-03-27T11:50:34.535Z,13.83
2023-03-27T11:51:34.492Z,13.93
2023-03-27T11:52:34.471Z,13.81
2023-03-27T11:53:34.507Z,13.77
2023-03-27T11:54:34.458Z,13.57
2023-03-27T11:55:34.464Z,13.49
2023-03-27T11:56:34.456Z,13.44
2023-03-27T11:57:34.424Z,13.27
2023-03-27T11:58:34.413Z,13.23
2023-03-27T11:59:34.388Z,13.20
2023-03-27T12:00:34.416Z,13.37
2023-03-27T12:01:34.415Z,13.47
2023-03-27T12:02:34.521Z,13.37
2023-03-27T12:03:34.436Z,13.22
2023-03-27T12:04:34.362Z,13.13
2023-03-27T12:05:34.326Z,13.08
2023-03-27T12:06:34.332Z,12.91
2023-03-27T12:07:37.087Z,12.80
2023-03-27T12:08:34.310Z,12.61
2023-03-27T12:09:34.290Z,12.60
2023-03-27T12:10:34.457Z,12.39
2023-03-27T12:11:34.278Z,12.15
2023-03-27T12:12:34.255Z,12.03
2023-03-27T12:13:41.261Z,11.94
2023-03-27T12:14:40.799Z,11.81
2023-03-27T12:15:35.229Z,11.69
2023-03-27T12:16:34.237Z,11.63
2023-03-27T12:17:34.303Z,11.62
2023-03-27T12:18:36.448Z,11.48
2023-03-27T12:19:38.592Z,11.62
2023-03-27T12:20:34.170Z,11.60
2023-03-27T12:21:34.147Z,11.65
2023-03-27T12:22:34.143Z,11.90
2023-03-27T12:23:34.196Z,12.00
2023-03-27T12:24:36.027Z,12.15
2023-03-27T12:25:40.903Z,12.17
2023-03-27T12:26:36.995Z,12.17
2023-03-27T12:27:34.098Z,12.17
2023-03-27T12:28:34.078Z,12.13
2023-03-27T12:29:34.101Z,12.18
2023-03-27T12:30:34.086Z,12.18
2023-03-27T12:31:34.556Z,12.20
2023-03-27T12:32:34.070Z,12.17
2023-03-27T12:33:34.082Z,12.25
2023-03-27T12:34:34.016Z,12.29
2023-03-27T12:35:34.074Z,12.32
2023-03-27T12:36:33.986Z,12.35
2023-03-27T12:37:33.980Z,12.42
2023-03-27T12:38:33.979Z,12.49
2023-03-27T12:39:33.953Z,12.58
2023-03-27T12:40:33.974Z,12.57
2023-03-27T12:41:33.948Z,12.49
2023-03-27T12:42:33.930Z,12.35
2023-03-27T12:43:34.915Z,12.29
2023-03-27T12:44:33.902Z,12.21
2023-03-27T12:45:38.742Z,12.27
2023-03-27T12:46:34.918Z,12.21
2023-03-27T12:47:33.909Z,12.27
2023-03-27T12:48:33.884Z,12.22
2023-03-27T12:49:46.314Z,11.99
2023-03-27T12:50:34.876Z,12.09
2023-03-27T12:51:33.835Z,12.00
2023-03-27T12:52:33.812Z,11.84
2023-03-27T12:53:33.805Z,11.84
2023-03-27T12:54:33.800Z,11.80
2023-03-27T12:55:33.798Z,11.75
2023-03-27T12:56:33.897Z,11.65
2023-03-27T12:57:33.899Z,11.52
2023-03-27T12:58:33.771Z,11.47
2023-03-27T12:59:33.745Z,11.55
2023-03-27T13:00:33.732Z,11.35
2023-03-27T13:01:45.365Z,11.40
2023-03-27T13:02:34.945Z,11.26
2023-03-27T13:03:33.815Z,11.18
2023-03-27T13:04:33.706Z,11.05
2023-03-27T13:05:33.692Z,10.81
2023-03-27T13:06:33.702Z,10.75
2023-03-27T13:07:33.698Z,10.64
2023-03-27T13:08:33.700Z,10.57
2023-03-27T13:09:33.645Z,10.60
2023-03-27T13:10:33.625Z,10.56
2023-03-27T13:11:33.613Z,10.40